sensor_id;sensor_type;location;lat;lon;timestamp;P1;durP1;ratioP1;P2;durP2;ratioP2
70558;SDS011;58108;48.094;11.838;2023-07-31T00:02:22;3.23;;;1.23;;
70558;SDS011;58108;48.094;11.838;2023-07-31T00:04:47;6.03;;;1.30;;
70558;SDS011;58108;48.094;11.838;2023-07-31T00:07:13;4.10;;;1.30;;
70558;SDS011;58108;48.094;11.838;2023-07-31T00:09:39;4.83;;;1.20;;
70558;SDS011;58108;48.094;11.838;2023-07-31T00:12:04;5.80;;;1.10;;
70558;SDS011;58108;48.094;11.838;2023-07-31T00:14:29;4.00;;;1.30;;
70558;SDS011;58108;48.094;11.838;2023-07-31T00:16:54;4.27;;;1.40;;
70558;SDS011;58108;48.094;11.838;2023-07-31T00:19:20;5.25;;;1.40;;
70558;SDS011;58108;48.094;11.838;2023-07-31T00:21:45;6.50;;;1.60;;
70558;SDS011;58108;48.094;11.838;2023-07-31T00:24:10;4.93;;;1.30;;
70558;SDS011;58108;48.094;11.838;2023-07-31T00:26:35;3.25;;;1.25;;
70558;SDS011;58108;48.094;11.838;2023-07-31T00:29:00;2.95;;;1.10;;
70558;SDS011;58108;48.094;11.838;2023-07-31T00:31:25;3.90;;;1.30;;
70558;SDS011;58108;48.094;11.838;2023-07-31T00:33:51;4.97;;;1.20;;
70558;SDS011;58108;48.094;11.838;2023-07-31T00:36:16;3.50;;;1.10;;
70558;SDS011;58108;48.094;11.838;2023-07-31T00:38:42;3.90;;;1.27;;
70558;SDS011;58108;48.094;11.838;2023-07-31T00:41:08;5.87;;;1.63;;
70558;SDS011;58108;48.094;11.838;2023-07-31T00:43:33;2.70;;;1.03;;
70558;SDS011;58108;48.094;11.838;2023-07-31T00:45:58;4.63;;;1.37;;
70558;SDS011;58108;48.094;11.838;2023-07-31T00:48:23;3.47;;;1.13;;
70558;SDS011;58108;48.094;11.838;2023-07-31T00:50:48;3.90;;;1.20;;
70558;SDS011;58108;48.094;11.838;2023-07-31T00:53:13;4.87;;;1.40;;
70558;SDS011;58108;48.094;11.838;2023-07-31T00:55:39;5.33;;;1.37;;
70558;SDS011;58108;48.094;11.838;2023-07-31T00:58:04;4.72;;;1.27;;
70558;SDS011;58108;48.094;11.838;2023-07-31T01:00:29;4.83;;;1.30;;
70558;SDS011;58108;48.094;11.838;2023-07-31T01:02:55;4.50;;;1.50;;
70558;SDS011;58108;48.094;11.838;2023-07-31T01:05:23;5.83;;;1.53;;
70558;SDS011;58108;48.094;11.838;2023-07-31T01:07:58;3.67;;;1.47;;
70558;SDS011;58108;48.094;11.838;2023-07-31T01:10:27;4.38;;;1.48;;
70558;SDS011;58108;48.094;11.838;2023-07-31T01:12:55;6.03;;;1.60;;
70558;SDS011;58108;48.094;11.838;2023-07-31T01:15:21;4.63;;;1.58;;
70558;SDS011;58108;48.094;11.838;2023-07-31T01:17:46;3.53;;;1.30;;
70558;SDS011;58108;48.094;11.838;2023-07-31T01:20:13;3.63;;;1.20;;
70558;SDS011;58108;48.094;11.838;2023-07-31T01:27:59;5.47;;;1.50;;
70558;SDS011;58108;48.094;11.838;2023-07-31T01:30:26;4.60;;;1.38;;
70558;SDS011;58108;48.094;11.838;2023-07-31T01:32:52;5.47;;;1.70;;
70558;SDS011;58108;48.094;11.838;2023-07-31T01:35:19;3.57;;;1.47;;
70558;SDS011;58108;48.094;11.838;2023-07-31T01:37:45;4.50;;;1.60;;
70558;SDS011;58108;48.094;11.838;2023-07-31T01:40:10;4.28;;;1.40;;
70558;SDS011;58108;48.094;11.838;2023-07-31T01:42:35;3.90;;;1.37;;
70558;SDS011;58108;48.094;11.838;2023-07-31T01:45:00;4.80;;;1.33;;
70558;SDS011;58108;48.094;11.838;2023-07-31T01:47:25;4.63;;;1.60;;
70558;SDS011;58108;48.094;11.838;2023-07-31T01:49:51;4.13;;;1.40;;
70558;SDS011;58108;48.094;11.838;2023-07-31T01:52:16;4.73;;;1.30;;
70558;SDS011;58108;48.094;11.838;2023-07-31T01:54:41;4.23;;;1.43;;
70558;SDS011;58108;48.094;11.838;2023-07-31T01:57:06;3.97;;;1.40;;
70558;SDS011;58108;48.094;11.838;2023-07-31T01:59:31;5.20;;;1.70;;
70558;SDS011;58108;48.094;11.838;2023-07-31T02:01:56;3.13;;;1.40;;
70558;SDS011;58108;48.094;11.838;2023-07-31T02:04:22;5.27;;;1.40;;
70558;SDS011;58108;48.094;11.838;2023-07-31T02:06:47;4.00;;;1.30;;
70558;SDS011;58108;48.094;11.838;2023-07-31T02:09:12;5.00;;;1.40;;
70558;SDS011;58108;48.094;11.838;2023-07-31T02:11:37;3.70;;;1.30;;
70558;SDS011;58108;48.094;11.838;2023-07-31T02:14:02;4.03;;;1.43;;
70558;SDS011;58108;48.094;11.838;2023-07-31T02:16:27;3.80;;;1.20;;
70558;SDS011;58108;48.094;11.838;2023-07-31T02:18:53;3.63;;;1.13;;
70558;SDS011;58108;48.094;11.838;2023-07-31T02:21:18;5.60;;;1.23;;
70558;SDS011;58108;48.094;11.838;2023-07-31T02:23:43;5.90;;;1.37;;
70558;SDS011;58108;48.094;11.838;2023-07-31T02:26:08;3.77;;;1.20;;
70558;SDS011;58108;48.094;11.838;2023-07-31T02:28:33;7.07;;;1.30;;
70558;SDS011;58108;48.094;11.838;2023-07-31T02:30:58;5.05;;;1.10;;
70558;SDS011;58108;48.094;11.838;2023-07-31T02:33:24;6.93;;;1.40;;
70558;SDS011;58108;48.094;11.838;2023-07-31T02:35:49;4.37;;;1.30;;
70558;SDS011;58108;48.094;11.838;2023-07-31T02:38:14;4.90;;;1.50;;
70558;SDS011;58108;48.094;11.838;2023-07-31T02:40:40;3.27;;;1.30;;
70558;SDS011;58108;48.094;11.838;2023-07-31T02:43:06;4.13;;;1.80;;
70558;SDS011;58108;48.094;11.838;2023-07-31T02:45:31;3.92;;;1.30;;
70558;SDS011;58108;48.094;11.838;2023-07-31T02:47:56;4.33;;;1.67;;
70558;SDS011;58108;48.094;11.838;2023-07-31T02:50:21;4.20;;;1.70;;
70558;SDS011;58108;48.094;11.838;2023-07-31T02:52:47;4.73;;;1.60;;
70558;SDS011;58108;48.094;11.838;2023-07-31T02:55:12;6.07;;;1.30;;
70558;SDS011;58108;48.094;11.838;2023-07-31T02:57:37;4.77;;;1.47;;
70558;SDS011;58108;48.094;11.838;2023-07-31T03:00:02;3.33;;;1.40;;
70558;SDS011;58108;48.094;11.838;2023-07-31T03:02:31;4.55;;;1.30;;
70558;SDS011;58108;48.094;11.838;2023-07-31T03:04:56;4.30;;;1.50;;
70558;SDS011;58108;48.094;11.838;2023-07-31T03:07:21;3.67;;;1.70;;
70558;SDS011;58108;48.094;11.838;2023-07-31T03:09:46;3.40;;;1.60;;
70558;SDS011;58108;48.094;11.838;2023-07-31T03:12:11;6.10;;;1.57;;
70558;SDS011;58108;48.094;11.838;2023-07-31T03:14:37;3.93;;;1.53;;
70558;SDS011;58108;48.094;11.838;2023-07-31T03:17:02;4.03;;;1.80;;
70558;SDS011;58108;48.094;11.838;2023-07-31T03:19:29;6.07;;;1.83;;
70558;SDS011;58108;48.094;11.838;2023-07-31T03:21:55;5.57;;;1.63;;
70558;SDS011;58108;48.094;11.838;2023-07-31T03:24:20;5.63;;;1.97;;
70558;SDS011;58108;48.094;11.838;2023-07-31T03:26:45;5.20;;;1.90;;
70558;SDS011;58108;48.094;11.838;2023-07-31T03:29:10;4.33;;;1.90;;
70558;SDS011;58108;48.094;11.838;2023-07-31T03:31:35;4.93;;;1.87;;
70558;SDS011;58108;48.094;11.838;2023-07-31T03:34:00;5.60;;;2.13;;
70558;SDS011;58108;48.094;11.838;2023-07-31T03:36:25;4.17;;;1.87;;
70558;SDS011;58108;48.094;11.838;2023-07-31T03:38:51;5.80;;;1.50;;
70558;SDS011;58108;48.094;11.838;2023-07-31T03:41:16;4.00;;;1.60;;
70558;SDS011;58108;48.094;11.838;2023-07-31T03:43:41;4.90;;;1.60;;
70558;SDS011;58108;48.094;11.838;2023-07-31T03:46:06;3.50;;;1.50;;
70558;SDS011;58108;48.094;11.838;2023-07-31T03:48:32;5.77;;;1.63;;
70558;SDS011;58108;48.094;11.838;2023-07-31T03:50:57;6.30;;;1.80;;
70558;SDS011;58108;48.094;11.838;2023-07-31T03:53:22;4.80;;;1.67;;
70558;SDS011;58108;48.094;11.838;2023-07-31T03:55:47;4.50;;;1.40;;
70558;SDS011;58108;48.094;11.838;2023-07-31T03:58:12;11.37;;;2.23;;
70558;SDS011;58108;48.094;11.838;2023-07-31T04:00:39;4.07;;;1.80;;
70558;SDS011;58108;48.094;11.838;2023-07-31T04:03:04;4.63;;;1.80;;
70558;SDS011;58108;48.094;11.838;2023-07-31T04:05:30;5.97;;;1.60;;
70558;SDS011;58108;48.094;11.838;2023-07-31T04:07:55;4.20;;;1.60;;
70558;SDS011;58108;48.094;11.838;2023-07-31T04:10:20;5.37;;;1.37;;
70558;SDS011;58108;48.094;11.838;2023-07-31T04:12:45;5.33;;;1.40;;
70558;SDS011;58108;48.094;11.838;2023-07-31T04:15:10;4.87;;;1.40;;
70558;SDS011;58108;48.094;11.838;2023-07-31T04:17:35;3.43;;;1.50;;
70558;SDS011;58108;48.094;11.838;2023-07-31T04:20:01;4.67;;;1.50;;
70558;SDS011;58108;48.094;11.838;2023-07-31T04:22:26;3.57;;;1.40;;
70558;SDS011;58108;48.094;11.838;2023-07-31T04:24:51;3.80;;;1.70;;
70558;SDS011;58108;48.094;11.838;2023-07-31T04:27:16;5.55;;;1.90;;
70558;SDS011;58108;48.094;11.838;2023-07-31T04:29:41;4.67;;;1.73;;
70558;SDS011;58108;48.094;11.838;2023-07-31T04:32:08;4.05;;;1.60;;
70558;SDS011;58108;48.094;11.838;2023-07-31T04:34:33;4.20;;;1.65;;
70558;SDS011;58108;48.094;11.838;2023-07-31T04:36:58;3.50;;;1.65;;
70558;SDS011;58108;48.094;11.838;2023-07-31T04:39:23;3.65;;;1.60;;
70558;SDS011;58108;48.094;11.838;2023-07-31T04:41:48;5.15;;;1.80;;
70558;SDS011;58108;48.094;11.838;2023-07-31T04:44:13;4.30;;;1.60;;
70558;SDS011;58108;48.094;11.838;2023-07-31T04:46:39;4.57;;;1.70;;
70558;SDS011;58108;48.094;11.838;2023-07-31T04:49:04;4.73;;;1.50;;
70558;SDS011;58108;48.094;11.838;2023-07-31T04:51:29;4.40;;;2.20;;
70558;SDS011;58108;48.094;11.838;2023-07-31T04:53:54;4.00;;;1.60;;
70558;SDS011;58108;48.094;11.838;2023-07-31T04:56:19;5.80;;;1.67;;
70558;SDS011;58108;48.094;11.838;2023-07-31T04:58:44;3.27;;;1.50;;
70558;SDS011;58108;48.094;11.838;2023-07-31T05:01:10;5.67;;;1.60;;
70558;SDS011;58108;48.094;11.838;2023-07-31T05:03:35;4.13;;;1.67;;
70558;SDS011;58108;48.094;11.838;2023-07-31T05:06:00;5.10;;;1.50;;
70558;SDS011;58108;48.094;11.838;2023-07-31T05:08:25;4.10;;;1.50;;
70558;SDS011;58108;48.094;11.838;2023-07-31T05:10:50;6.07;;;1.60;;
70558;SDS011;58108;48.094;11.838;2023-07-31T05:13:16;6.97;;;1.57;;
70558;SDS011;58108;48.094;11.838;2023-07-31T05:15:41;4.20;;;1.90;;
70558;SDS011;58108;48.094;11.838;2023-07-31T05:18:06;5.67;;;1.80;;
70558;SDS011;58108;48.094;11.838;2023-07-31T05:20:31;4.37;;;1.57;;
70558;SDS011;58108;48.094;11.838;2023-07-31T05:22:56;6.83;;;3.13;;
70558;SDS011;58108;48.094;11.838;2023-07-31T05:25:22;8.00;;;3.33;;
70558;SDS011;58108;48.094;11.838;2023-07-31T05:27:47;4.37;;;2.27;;
70558;SDS011;58108;48.094;11.838;2023-07-31T05:30:12;5.47;;;2.03;;
70558;SDS011;58108;48.094;11.838;2023-07-31T05:32:37;5.97;;;2.97;;
70558;SDS011;58108;48.094;11.838;2023-07-31T05:35:02;4.67;;;1.70;;
70558;SDS011;58108;48.094;11.838;2023-07-31T05:37:28;4.23;;;1.50;;
70558;SDS011;58108;48.094;11.838;2023-07-31T05:39:53;4.50;;;1.50;;
70558;SDS011;58108;48.094;11.838;2023-07-31T05:42:18;5.30;;;1.57;;
70558;SDS011;58108;48.094;11.838;2023-07-31T05:44:44;4.23;;;1.40;;
70558;SDS011;58108;48.094;11.838;2023-07-31T05:47:09;3.57;;;1.30;;
70558;SDS011;58108;48.094;11.838;2023-07-31T05:49:34;4.73;;;1.40;;
70558;SDS011;58108;48.094;11.838;2023-07-31T05:51:59;5.37;;;1.67;;
70558;SDS011;58108;48.094;11.838;2023-07-31T05:54:24;4.27;;;1.70;;
70558;SDS011;58108;48.094;11.838;2023-07-31T05:56:50;3.10;;;1.30;;
70558;SDS011;58108;48.094;11.838;2023-07-31T05:59:15;3.77;;;1.33;;
70558;SDS011;58108;48.094;11.838;2023-07-31T06:01:40;4.17;;;1.30;;
70558;SDS011;58108;48.094;11.838;2023-07-31T06:04:06;3.53;;;1.50;;
70558;SDS011;58108;48.094;11.838;2023-07-31T06:06:31;3.57;;;1.40;;
70558;SDS011;58108;48.094;11.838;2023-07-31T06:08:56;5.70;;;1.63;;
70558;SDS011;58108;48.094;11.838;2023-07-31T06:11:21;4.23;;;1.53;;
70558;SDS011;58108;48.094;11.838;2023-07-31T06:13:47;4.20;;;1.40;;
70558;SDS011;58108;48.094;11.838;2023-07-31T06:16:13;3.60;;;1.50;;
70558;SDS011;58108;48.094;11.838;2023-07-31T06:18:38;3.53;;;1.60;;
70558;SDS011;58108;48.094;11.838;2023-07-31T06:21:04;4.20;;;1.20;;
70558;SDS011;58108;48.094;11.838;2023-07-31T06:23:29;2.97;;;0.90;;
70558;SDS011;58108;48.094;11.838;2023-07-31T06:25:54;4.10;;;1.20;;
70558;SDS011;58108;48.094;11.838;2023-07-31T06:28:19;4.30;;;1.70;;
70558;SDS011;58108;48.094;11.838;2023-07-31T06:30:44;3.10;;;1.40;;
70558;SDS011;58108;48.094;11.838;2023-07-31T06:33:10;5.27;;;1.50;;
70558;SDS011;58108;48.094;11.838;2023-07-31T06:35:35;3.27;;;1.50;;
70558;SDS011;58108;48.094;11.838;2023-07-31T06:38:00;5.50;;;1.30;;
70558;SDS011;58108;48.094;11.838;2023-07-31T06:40:26;4.15;;;1.60;;
70558;SDS011;58108;48.094;11.838;2023-07-31T06:42:51;5.60;;;1.73;;
70558;SDS011;58108;48.094;11.838;2023-07-31T06:45:16;5.10;;;0.90;;
70558;SDS011;58108;48.094;11.838;2023-07-31T06:47:42;2.63;;;0.90;;
70558;SDS011;58108;48.094;11.838;2023-07-31T06:50:07;4.23;;;1.53;;
70558;SDS011;58108;48.094;11.838;2023-07-31T06:52:33;4.25;;;1.20;;
70558;SDS011;58108;48.094;11.838;2023-07-31T06:55:02;3.37;;;0.93;;
70558;SDS011;58108;48.094;11.838;2023-07-31T06:57:28;4.33;;;1.30;;
70558;SDS011;58108;48.094;11.838;2023-07-31T06:59:53;2.63;;;1.17;;
70558;SDS011;58108;48.094;11.838;2023-07-31T07:02:18;6.70;;;1.30;;
70558;SDS011;58108;48.094;11.838;2023-07-31T07:04:43;3.70;;;1.10;;
70558;SDS011;58108;48.094;11.838;2023-07-31T07:07:09;3.63;;;1.13;;
70558;SDS011;58108;48.094;11.838;2023-07-31T07:09:34;5.87;;;1.27;;
70558;SDS011;58108;48.094;11.838;2023-07-31T07:11:59;3.05;;;1.20;;
70558;SDS011;58108;48.094;11.838;2023-07-31T07:14:24;3.70;;;1.30;;
70558;SDS011;58108;48.094;11.838;2023-07-31T07:16:52;4.65;;;1.38;;
70558;SDS011;58108;48.094;11.838;2023-07-31T07:19:17;2.83;;;1.00;;
70558;SDS011;58108;48.094;11.838;2023-07-31T07:21:43;5.03;;;1.30;;
70558;SDS011;58108;48.094;11.838;2023-07-31T07:24:08;3.63;;;1.00;;
70558;SDS011;58108;48.094;11.838;2023-07-31T07:26:33;3.00;;;1.40;;
70558;SDS011;58108;48.094;11.838;2023-07-31T07:28:58;2.07;;;0.57;;
70558;SDS011;58108;48.094;11.838;2023-07-31T07:31:26;3.70;;;1.90;;
70558;SDS011;58108;48.094;11.838;2023-07-31T07:33:51;4.32;;;1.20;;
70558;SDS011;58108;48.094;11.838;2023-07-31T07:36:16;5.17;;;1.17;;
70558;SDS011;58108;48.094;11.838;2023-07-31T07:38:41;3.90;;;1.30;;
70558;SDS011;58108;48.094;11.838;2023-07-31T07:41:07;2.70;;;0.90;;
70558;SDS011;58108;48.094;11.838;2023-07-31T07:43:32;2.70;;;1.00;;
70558;SDS011;58108;48.094;11.838;2023-07-31T07:45:57;3.97;;;1.10;;
70558;SDS011;58108;48.094;11.838;2023-07-31T07:48:22;4.63;;;1.47;;
70558;SDS011;58108;48.094;11.838;2023-07-31T07:50:48;4.10;;;1.60;;
70558;SDS011;58108;48.094;11.838;2023-07-31T07:53:13;2.73;;;1.17;;
70558;SDS011;58108;48.094;11.838;2023-07-31T07:55:39;3.83;;;1.20;;
70558;SDS011;58108;48.094;11.838;2023-07-31T07:58:04;4.53;;;1.20;;
70558;SDS011;58108;48.094;11.838;2023-07-31T08:00:29;3.33;;;1.30;;
70558;SDS011;58108;48.094;11.838;2023-07-31T08:02:54;4.63;;;1.33;;
70558;SDS011;58108;48.094;11.838;2023-07-31T08:05:19;3.23;;;1.60;;
70558;SDS011;58108;48.094;11.838;2023-07-31T08:07:45;5.60;;;1.07;;
70558;SDS011;58108;48.094;11.838;2023-07-31T08:10:10;2.70;;;1.07;;
70558;SDS011;58108;48.094;11.838;2023-07-31T08:12:35;2.40;;;1.10;;
70558;SDS011;58108;48.094;11.838;2023-07-31T08:15:00;4.57;;;1.20;;
70558;SDS011;58108;48.094;11.838;2023-07-31T08:17:25;4.50;;;1.03;;
70558;SDS011;58108;48.094;11.838;2023-07-31T08:19:50;5.47;;;1.20;;
70558;SDS011;58108;48.094;11.838;2023-07-31T08:22:16;3.73;;;1.40;;
70558;SDS011;58108;48.094;11.838;2023-07-31T08:24:41;2.85;;;1.38;;
70558;SDS011;58108;48.094;11.838;2023-07-31T08:27:06;3.10;;;1.40;;
70558;SDS011;58108;48.094;11.838;2023-07-31T08:29:31;5.23;;;1.30;;
70558;SDS011;58108;48.094;11.838;2023-07-31T08:31:56;3.87;;;1.30;;
70558;SDS011;58108;48.094;11.838;2023-07-31T08:34:21;3.80;;;1.10;;
70558;SDS011;58108;48.094;11.838;2023-07-31T08:36:47;5.73;;;1.10;;
70558;SDS011;58108;48.094;11.838;2023-07-31T08:39:12;2.30;;;1.00;;
70558;SDS011;58108;48.094;11.838;2023-07-31T08:41:38;3.60;;;1.10;;
70558;SDS011;58108;48.094;11.838;2023-07-31T08:44:04;3.63;;;1.05;;
70558;SDS011;58108;48.094;11.838;2023-07-31T08:46:29;2.67;;;1.00;;
70558;SDS011;58108;48.094;11.838;2023-07-31T08:48:54;3.10;;;1.13;;
70558;SDS011;58108;48.094;11.838;2023-07-31T08:51:20;3.93;;;1.00;;
70558;SDS011;58108;48.094;11.838;2023-07-31T08:53:45;3.77;;;1.10;;
70558;SDS011;58108;48.094;11.838;2023-07-31T08:56:10;5.13;;;1.27;;
70558;SDS011;58108;48.094;11.838;2023-07-31T08:58:36;4.40;;;1.10;;
70558;SDS011;58108;48.094;11.838;2023-07-31T09:01:03;5.33;;;1.33;;
70558;SDS011;58108;48.094;11.838;2023-07-31T09:03:29;4.10;;;1.30;;
70558;SDS011;58108;48.094;11.838;2023-07-31T09:05:58;4.05;;;1.50;;
70558;SDS011;58108;48.094;11.838;2023-07-31T09:08:24;4.82;;;1.60;;
70558;SDS011;58108;48.094;11.838;2023-07-31T09:10:51;4.32;;;1.52;;
70558;SDS011;58108;48.094;11.838;2023-07-31T09:13:16;3.87;;;1.50;;
70558;SDS011;58108;48.094;11.838;2023-07-31T09:15:45;3.95;;;1.30;;
70558;SDS011;58108;48.094;11.838;2023-07-31T09:18:11;3.90;;;1.17;;
70558;SDS011;58108;48.094;11.838;2023-07-31T09:20:36;3.63;;;1.30;;
70558;SDS011;58108;48.094;11.838;2023-07-31T09:23:12;3.80;;;1.20;;
70558;SDS011;58108;48.094;11.838;2023-07-31T09:25:38;2.50;;;1.00;;
70558;SDS011;58108;48.094;11.838;2023-07-31T09:28:05;3.28;;;1.30;;
70558;SDS011;58108;48.094;11.838;2023-07-31T09:30:30;4.25;;;1.20;;
70558;SDS011;58108;48.094;11.838;2023-07-31T09:33:05;4.47;;;1.23;;
70558;SDS011;58108;48.094;11.838;2023-07-31T09:35:34;3.42;;;1.20;;
70558;SDS011;58108;48.094;11.838;2023-07-31T09:38:06;3.97;;;1.20;;
70558;SDS011;58108;48.094;11.838;2023-07-31T09:40:33;4.57;;;1.30;;
70558;SDS011;58108;48.094;11.838;2023-07-31T09:42:59;2.85;;;0.73;;
70558;SDS011;58108;48.094;11.838;2023-07-31T09:45:25;3.72;;;1.15;;
70558;SDS011;58108;48.094;11.838;2023-07-31T09:47:50;2.43;;;1.00;;
70558;SDS011;58108;48.094;11.838;2023-07-31T09:50:16;4.43;;;1.10;;
70558;SDS011;58108;48.094;11.838;2023-07-31T09:52:42;3.93;;;1.13;;
70558;SDS011;58108;48.094;11.838;2023-07-31T09:55:09;2.77;;;1.23;;
70558;SDS011;58108;48.094;11.838;2023-07-31T09:57:36;4.38;;;1.33;;
70558;SDS011;58108;48.094;11.838;2023-07-31T10:00:04;5.60;;;1.30;;
70558;SDS011;58108;48.094;11.838;2023-07-31T10:02:29;2.70;;;1.10;;
70558;SDS011;58108;48.094;11.838;2023-07-31T10:04:56;3.17;;;1.10;;
70558;SDS011;58108;48.094;11.838;2023-07-31T10:07:23;3.97;;;1.30;;
70558;SDS011;58108;48.094;11.838;2023-07-31T10:09:49;3.88;;;1.02;;
70558;SDS011;58108;48.094;11.838;2023-07-31T10:12:16;4.32;;;1.70;;
70558;SDS011;58108;48.094;11.838;2023-07-31T10:14:42;4.00;;;1.30;;
70558;SDS011;58108;48.094;11.838;2023-07-31T10:17:07;2.97;;;1.00;;
70558;SDS011;58108;48.094;11.838;2023-07-31T10:19:33;4.45;;;1.23;;
70558;SDS011;58108;48.094;11.838;2023-07-31T10:21:59;3.23;;;1.30;;
70558;SDS011;58108;48.094;11.838;2023-07-31T10:24:25;3.90;;;1.57;;
70558;SDS011;58108;48.094;11.838;2023-07-31T10:26:51;4.25;;;1.25;;
70558;SDS011;58108;48.094;11.838;2023-07-31T10:29:17;2.40;;;1.13;;
70558;SDS011;58108;48.094;11.838;2023-07-31T10:31:43;3.92;;;1.10;;
70558;SDS011;58108;48.094;11.838;2023-07-31T10:34:09;4.05;;;1.30;;
70558;SDS011;58108;48.094;11.838;2023-07-31T10:36:34;3.03;;;1.20;;
70558;SDS011;58108;48.094;11.838;2023-07-31T10:38:59;3.50;;;1.10;;
70558;SDS011;58108;48.094;11.838;2023-07-31T10:41:29;3.13;;;1.10;;
70558;SDS011;58108;48.094;11.838;2023-07-31T10:43:57;2.38;;;0.85;;
70558;SDS011;58108;48.094;11.838;2023-07-31T10:46:22;4.17;;;1.20;;
70558;SDS011;58108;48.094;11.838;2023-07-31T10:48:47;2.80;;;0.90;;
70558;SDS011;58108;48.094;11.838;2023-07-31T10:51:21;2.53;;;0.95;;
70558;SDS011;58108;48.094;11.838;2023-07-31T10:53:47;2.15;;;0.90;;
70558;SDS011;58108;48.094;11.838;2023-07-31T10:56:12;2.70;;;1.00;;
70558;SDS011;58108;48.094;11.838;2023-07-31T10:58:40;2.90;;;1.10;;
70558;SDS011;58108;48.094;11.838;2023-07-31T11:01:08;4.70;;;1.00;;
70558;SDS011;58108;48.094;11.838;2023-07-31T11:03:46;3.53;;;1.20;;
70558;SDS011;58108;48.094;11.838;2023-07-31T11:06:12;4.95;;;1.05;;
70558;SDS011;58108;48.094;11.838;2023-07-31T11:08:42;4.78;;;0.98;;
70558;SDS011;58108;48.094;11.838;2023-07-31T11:11:08;3.47;;;1.05;;
70558;SDS011;58108;48.094;11.838;2023-07-31T11:16:15;3.70;;;1.20;;
70558;SDS011;58108;48.094;11.838;2023-07-31T11:18:41;4.30;;;1.20;;
70558;SDS011;58108;48.094;11.838;2023-07-31T11:21:07;2.90;;;1.23;;
70558;SDS011;58108;48.094;11.838;2023-07-31T11:23:32;2.70;;;1.10;;
70558;SDS011;58108;48.094;11.838;2023-07-31T11:26:01;3.10;;;1.00;;
70558;SDS011;58108;48.094;11.838;2023-07-31T11:28:30;3.50;;;1.30;;
70558;SDS011;58108;48.094;11.838;2023-07-31T11:30:56;3.63;;;1.00;;
70558;SDS011;58108;48.094;11.838;2023-07-31T11:33:21;4.33;;;1.20;;
70558;SDS011;58108;48.094;11.838;2023-07-31T11:35:47;3.33;;;1.20;;
70558;SDS011;58108;48.094;11.838;2023-07-31T11:40:49;3.60;;;1.10;;
70558;SDS011;58108;48.094;11.838;2023-07-31T11:43:14;2.47;;;0.90;;
70558;SDS011;58108;48.094;11.838;2023-07-31T11:45:44;3.25;;;1.15;;
70558;SDS011;58108;48.094;11.838;2023-07-31T11:48:10;3.50;;;1.20;;
70558;SDS011;58108;48.094;11.838;2023-07-31T11:50:35;2.83;;;0.97;;
70558;SDS011;58108;48.094;11.838;2023-07-31T11:53:02;2.50;;;0.90;;
70558;SDS011;58108;48.094;11.838;2023-07-31T11:55:28;3.35;;;1.10;;
70558;SDS011;58108;48.094;11.838;2023-07-31T11:57:54;6.23;;;1.33;;
70558;SDS011;58108;48.094;11.838;2023-07-31T12:00:20;5.00;;;1.27;;
70558;SDS011;58108;48.094;11.838;2023-07-31T12:02:45;3.83;;;1.30;;
70558;SDS011;58108;48.094;11.838;2023-07-31T12:05:11;3.20;;;1.42;;
70558;SDS011;58108;48.094;11.838;2023-07-31T12:10:08;3.63;;;1.48;;
70558;SDS011;58108;48.094;11.838;2023-07-31T12:12:34;3.50;;;1.40;;
70558;SDS011;58108;48.094;11.838;2023-07-31T12:14:59;3.27;;;1.10;;
70558;SDS011;58108;48.094;11.838;2023-07-31T12:17:24;3.47;;;1.33;;
70558;SDS011;58108;48.094;11.838;2023-07-31T12:19:50;2.92;;;1.13;;
70558;SDS011;58108;48.094;11.838;2023-07-31T12:22:16;2.97;;;1.17;;
70558;SDS011;58108;48.094;11.838;2023-07-31T12:24:44;2.97;;;1.40;;
70558;SDS011;58108;48.094;11.838;2023-07-31T12:27:13;2.97;;;1.40;;
70558;SDS011;58108;48.094;11.838;2023-07-31T12:29:39;4.97;;;1.60;;
70558;SDS011;58108;48.094;11.838;2023-07-31T12:32:18;2.78;;;1.20;;
70558;SDS011;58108;48.094;11.838;2023-07-31T12:34:43;3.05;;;1.48;;
70558;SDS011;58108;48.094;11.838;2023-07-31T12:37:08;4.73;;;1.77;;
70558;SDS011;58108;48.094;11.838;2023-07-31T12:39:34;3.70;;;1.90;;
70558;SDS011;58108;48.094;11.838;2023-07-31T12:41:59;3.67;;;1.83;;
70558;SDS011;58108;48.094;11.838;2023-07-31T12:44:24;4.03;;;1.57;;
70558;SDS011;58108;48.094;11.838;2023-07-31T12:46:49;3.43;;;1.40;;
70558;SDS011;58108;48.094;11.838;2023-07-31T12:49:14;2.87;;;1.30;;
70558;SDS011;58108;48.094;11.838;2023-07-31T12:51:40;4.18;;;1.65;;
70558;SDS011;58108;48.094;11.838;2023-07-31T12:54:05;2.90;;;1.17;;
70558;SDS011;58108;48.094;11.838;2023-07-31T12:56:31;2.90;;;1.17;;
70558;SDS011;58108;48.094;11.838;2023-07-31T12:58:56;2.70;;;1.13;;
70558;SDS011;58108;48.094;11.838;2023-07-31T13:01:21;3.37;;;1.30;;
70558;SDS011;58108;48.094;11.838;2023-07-31T13:03:46;4.50;;;1.30;;
70558;SDS011;58108;48.094;11.838;2023-07-31T13:06:11;4.13;;;1.30;;
70558;SDS011;58108;48.094;11.838;2023-07-31T13:08:36;3.67;;;1.13;;
70558;SDS011;58108;48.094;11.838;2023-07-31T13:11:02;2.53;;;1.20;;
70558;SDS011;58108;48.094;11.838;2023-07-31T13:13:27;3.53;;;1.17;;
70558;SDS011;58108;48.094;11.838;2023-07-31T13:15:52;2.75;;;1.10;;
70558;SDS011;58108;48.094;11.838;2023-07-31T13:18:17;2.73;;;0.80;;
70558;SDS011;58108;48.094;11.838;2023-07-31T13:20:42;3.37;;;1.27;;
70558;SDS011;58108;48.094;11.838;2023-07-31T13:23:07;2.60;;;1.20;;
70558;SDS011;58108;48.094;11.838;2023-07-31T13:25:33;2.93;;;1.27;;
70558;SDS011;58108;48.094;11.838;2023-07-31T13:27:58;4.60;;;1.00;;
70558;SDS011;58108;48.094;11.838;2023-07-31T13:30:23;3.13;;;1.17;;
70558;SDS011;58108;48.094;11.838;2023-07-31T13:32:48;2.55;;;0.90;;
70558;SDS011;58108;48.094;11.838;2023-07-31T13:35:13;3.87;;;1.30;;
70558;SDS011;58108;48.094;11.838;2023-07-31T13:37:38;2.53;;;1.20;;
70558;SDS011;58108;48.094;11.838;2023-07-31T13:40:04;2.40;;;1.20;;
70558;SDS011;58108;48.094;11.838;2023-07-31T13:42:30;3.07;;;1.17;;
70558;SDS011;58108;48.094;11.838;2023-07-31T13:44:55;2.67;;;1.20;;
70558;SDS011;58108;48.094;11.838;2023-07-31T13:47:21;2.90;;;1.27;;
70558;SDS011;58108;48.094;11.838;2023-07-31T13:49:46;3.63;;;1.33;;
70558;SDS011;58108;48.094;11.838;2023-07-31T13:52:11;3.23;;;1.20;;
70558;SDS011;58108;48.094;11.838;2023-07-31T13:54:36;2.80;;;1.33;;
70558;SDS011;58108;48.094;11.838;2023-07-31T13:57:02;2.93;;;1.20;;
70558;SDS011;58108;48.094;11.838;2023-07-31T13:59:27;2.50;;;1.37;;
70558;SDS011;58108;48.094;11.838;2023-07-31T14:01:52;2.20;;;1.10;;
70558;SDS011;58108;48.094;11.838;2023-07-31T14:04:17;2.27;;;1.13;;
70558;SDS011;58108;48.094;11.838;2023-07-31T14:06:43;3.30;;;1.17;;
70558;SDS011;58108;48.094;11.838;2023-07-31T14:09:08;2.63;;;1.10;;
70558;SDS011;58108;48.094;11.838;2023-07-31T14:11:33;2.40;;;1.10;;
70558;SDS011;58108;48.094;11.838;2023-07-31T14:13:58;2.55;;;1.00;;
70558;SDS011;58108;48.094;11.838;2023-07-31T14:16:24;2.20;;;1.13;;
70558;SDS011;58108;48.094;11.838;2023-07-31T14:18:49;2.57;;;1.10;;
70558;SDS011;58108;48.094;11.838;2023-07-31T14:21:14;2.17;;;0.93;;
70558;SDS011;58108;48.094;11.838;2023-07-31T14:23:40;2.17;;;1.03;;
70558;SDS011;58108;48.094;11.838;2023-07-31T14:26:05;2.73;;;1.30;;
70558;SDS011;58108;48.094;11.838;2023-07-31T14:28:30;2.50;;;0.90;;
70558;SDS011;58108;48.094;11.838;2023-07-31T14:30:55;2.43;;;1.20;;
70558;SDS011;58108;48.094;11.838;2023-07-31T14:33:20;2.57;;;1.10;;
70558;SDS011;58108;48.094;11.838;2023-07-31T14:35:46;2.30;;;1.20;;
70558;SDS011;58108;48.094;11.838;2023-07-31T14:38:11;3.23;;;0.80;;